createdAt,value
2022-10-22T00:01:11.539Z,10.55
2022-10-22T00:03:38.167Z,10.30
2022-10-22T00:06:06.742Z,10.23
2022-10-22T00:08:33.398Z,9.93
2022-10-22T00:11:00.149Z,9.37
2022-10-22T00:13:26.813Z,9.23
2022-10-22T00:15:53.382Z,10.05
2022-10-22T00:18:19.974Z,9.57
2022-10-22T00:20:46.574Z,10.13
2022-10-22T00:23:14.767Z,9.10
2022-10-22T00:25:41.387Z,9.00
2022-10-22T00:28:08.004Z,10.10
2022-10-22T00:30:34.499Z,9.25
2022-10-22T00:33:01.086Z,9.07
2022-10-22T00:35:27.579Z,10.83
2022-10-22T00:37:54.123Z,10.00
2022-10-22T00:40:22.046Z,10.80
2022-10-22T00:42:48.600Z,10.23
2022-10-22T00:45:19.169Z,10.13
2022-10-22T00:47:51.628Z,10.10
2022-10-22T00:50:23.566Z,10.05
2022-10-22T00:52:50.612Z,10.07
2022-10-22T00:55:18.337Z,10.43
2022-10-22T00:57:47.254Z,9.95
2022-10-22T01:00:15.042Z,10.77
2022-10-22T01:02:42.211Z,9.85
2022-10-22T01:05:09.717Z,10.38
2022-10-22T01:07:41.828Z,10.30
2022-10-22T01:10:16.098Z,10.50
2022-10-22T01:12:51.351Z,9.70
2022-10-22T01:15:24.559Z,9.95
2022-10-22T01:17:59.347Z,10.48
2022-10-22T01:20:53.313Z,9.13
2022-10-22T01:23:50.444Z,10.15
2022-10-22T01:26:27.420Z,9.93
2022-10-22T01:29:02.505Z,9.93
2022-10-22T01:31:34.749Z,9.98
2022-10-22T01:34:03.344Z,9.82
2022-10-22T01:36:32.433Z,9.73
2022-10-22T01:39:02.145Z,9.50
2022-10-22T01:41:29.173Z,9.32
2022-10-22T01:43:55.888Z,9.88
2022-10-22T01:46:25.523Z,9.63
2022-10-22T01:49:10.553Z,9.93
2022-10-22T01:51:49.394Z,9.83
2022-10-22T01:54:26.023Z,8.73
2022-10-22T01:57:04.605Z,9.45
2022-10-22T01:59:39.378Z,9.70
2022-10-22T02:02:13.267Z,9.05
2022-10-22T02:04:44.627Z,8.87
2022-10-22T02:07:15.358Z,8.93
2022-10-22T02:09:44.682Z,9.57
2022-10-22T02:12:13.437Z,9.45
2022-10-22T02:14:43.447Z,9.65
2022-10-22T02:17:16.222Z,9.70
2022-10-22T02:19:48.283Z,9.93
2022-10-22T02:22:14.882Z,10.90
2022-10-22T02:24:41.608Z,9.93
2022-10-22T02:27:15.658Z,10.30
2022-10-22T02:29:47.429Z,9.23
2022-10-22T02:32:20.746Z,9.65
2022-10-22T02:34:49.821Z,9.60
2022-10-22T02:37:18.303Z,10.40
2022-10-22T02:39:45.379Z,10.50
2022-10-22T02:42:12.493Z,9.90
2022-10-22T02:44:39.103Z,9.73
2022-10-22T02:47:05.655Z,9.80
2022-10-22T02:49:33.663Z,9.32
2022-10-22T02:52:00.247Z,9.95
2022-10-22T02:54:26.852Z,9.50
2022-10-22T02:56:53.385Z,10.85
2022-10-22T02:59:20.008Z,10.30
2022-10-22T03:01:46.507Z,10.10
2022-10-22T03:04:13.110Z,9.85
2022-10-22T03:06:41.477Z,8.93
2022-10-22T03:09:07.982Z,10.18
2022-10-22T03:11:34.547Z,9.40
2022-10-22T03:14:01.057Z,9.55
2022-10-22T03:16:27.567Z,9.57
2022-10-22T03:18:54.081Z,10.47
2022-10-22T03:21:28.357Z,9.85
2022-10-22T03:23:56.724Z,10.27
2022-10-22T03:26:24.454Z,9.85
2022-10-22T03:28:51.448Z,9.40
2022-10-22T03:31:17.955Z,9.40
2022-10-22T03:33:44.563Z,9.60
2022-10-22T03:36:11.294Z,8.73
2022-10-22T03:38:39.460Z,9.35
2022-10-22T03:41:07.688Z,9.65
2022-10-22T03:43:35.471Z,9.30
2022-10-22T03:46:02.012Z,9.20
2022-10-22T03:48:28.521Z,9.80
2022-10-22T03:50:55.097Z,10.07
2022-10-22T03:53:21.753Z,10.98
2022-10-22T03:55:48.377Z,10.43
2022-10-22T03:58:16.337Z,10.73
2022-10-22T04:00:43.044Z,11.32
2022-10-22T04:03:09.616Z,11.35
2022-10-22T04:05:36.134Z,10.98
2022-10-22T04:08:02.854Z,11.63
2022-10-22T04:10:29.417Z,11.43
2022-10-22T04:12:55.988Z,11.50
2022-10-22T04:15:23.976Z,11.50
2022-10-22T04:17:50.512Z,12.02
2022-10-22T04:20:17.254Z,12.10
2022-10-22T04:22:43.757Z,11.80
2022-10-22T04:25:10.391Z,12.57
2022-10-22T04:27:37.288Z,12.30
2022-10-22T04:30:04.652Z,11.50
2022-10-22T04:32:32.562Z,11.17
2022-10-22T04:34:59.074Z,11.90
2022-10-22T04:37:25.605Z,11.52
2022-10-22T04:39:52.114Z,11.55
2022-10-22T04:42:18.725Z,11.13
2022-10-22T04:44:45.237Z,11.03
2022-10-22T04:47:11.907Z,10.15
2022-10-22T04:49:40.377Z,11.85
2022-10-22T04:52:06.870Z,11.52
2022-10-22T04:54:33.404Z,11.77
2022-10-22T04:57:00.173Z,11.30
2022-10-22T04:59:26.717Z,10.95
2022-10-22T05:01:53.257Z,10.88
2022-10-22T05:04:20.049Z,11.00
2022-10-22T05:06:47.891Z,11.88
2022-10-22T05:09:17.056Z,11.40
2022-10-22T05:11:45.744Z,10.88
2022-10-22T05:14:12.738Z,10.60
2022-10-22T05:16:39.440Z,10.02
2022-10-22T05:19:07.205Z,9.82
2022-10-22T05:21:34.283Z,8.63
2022-10-22T05:24:02.164Z,8.95
2022-10-22T05:26:29.450Z,10.23
2022-10-22T05:28:56.344Z,9.27
2022-10-22T05:31:23.676Z,9.10
2022-10-22T05:33:50.269Z,9.93
2022-10-22T05:36:18.701Z,9.05
2022-10-22T05:38:45.963Z,7.85
2022-10-22T05:41:15.881Z,8.70
2022-10-22T05:43:42.675Z,7.35
2022-10-22T05:46:10.760Z,7.97
2022-10-22T05:48:37.819Z,7.15
2022-10-22T05:51:05.704Z,7.50
2022-10-22T05:53:32.990Z,6.20
2022-10-22T05:56:03.904Z,5.28
2022-10-22T05:58:32.448Z,3.93
2022-10-22T06:01:03.534Z,3.22
2022-10-22T06:03:30.100Z,2.85
2022-10-22T06:05:56.644Z,3.17
2022-10-22T06:08:23.156Z,3.13
2022-10-22T06:10:49.686Z,2.57
2022-10-22T06:13:16.246Z,2.40
2022-10-22T06:15:44.116Z,2.15
2022-10-22T06:18:10.858Z,2.40
2022-10-22T06:20:37.649Z,2.38
2022-10-22T06:23:04.155Z,1.87
2022-10-22T06:25:30.638Z,2.00
2022-10-22T06:27:57.271Z,1.80
2022-10-22T06:30:23.799Z,2.13
2022-10-22T06:32:51.710Z,2.30
2022-10-22T06:35:18.259Z,2.20
2022-10-22T06:37:44.933Z,2.13
2022-10-22T06:40:12.565Z,2.28
2022-10-22T06:42:39.410Z,2.53
2022-10-22T06:45:07.912Z,2.97
2022-10-22T06:47:34.463Z,3.27
2022-10-22T06:50:02.473Z,3.13
2022-10-22T06:52:28.959Z,3.47
2022-10-22T06:54:55.588Z,3.45
2022-10-22T06:57:22.097Z,3.50
2022-10-22T06:59:48.617Z,3.07
2022-10-22T07:02:15.165Z,3.47
2022-10-22T07:04:41.786Z,3.10
2022-10-22T07:07:09.661Z,3.45
2022-10-22T07:09:36.191Z,3.20
2022-10-22T07:12:02.715Z,2.90
2022-10-22T07:14:29.231Z,3.10
2022-10-22T07:16:57.885Z,3.40
2022-10-22T07:19:24.386Z,3.15
2022-10-22T07:21:50.929Z,3.22
2022-10-22T07:24:18.806Z,2.83
2022-10-22T07:26:45.377Z,3.20
2022-10-22T07:29:11.884Z,3.15
2022-10-22T07:31:38.546Z,2.90
2022-10-22T07:34:05.609Z,2.90
2022-10-22T07:36:32.191Z,3.00
2022-10-22T07:38:59.484Z,3.53
2022-10-22T07:41:28.702Z,3.10
2022-10-22T07:43:55.551Z,3.42
2022-10-22T07:46:22.381Z,2.72
2022-10-22T07:48:49.054Z,2.90
2022-10-22T07:51:16.544Z,2.97
2022-10-22T07:53:43.080Z,3.85
2022-10-22T07:56:10.561Z,3.30
2022-10-22T07:58:38.496Z,4.05
2022-10-22T08:01:05.149Z,3.63
2022-10-22T08:03:32.815Z,4.10
2022-10-22T08:06:00.189Z,5.18
2022-10-22T08:08:29.846Z,4.38
2022-10-22T08:10:59.866Z,4.55
2022-10-22T08:13:26.829Z,4.40
2022-10-22T08:15:57.361Z,4.70
2022-10-22T08:18:24.717Z,4.82
2022-10-22T08:20:51.450Z,4.75
2022-10-22T08:23:18.254Z,4.13
2022-10-22T08:25:44.853Z,4.60
2022-10-22T08:28:11.460Z,4.43
2022-10-22T08:30:38.393Z,4.68
2022-10-22T08:33:06.285Z,4.78
2022-10-22T08:35:32.881Z,4.65
2022-10-22T08:37:59.409Z,4.87
2022-10-22T08:40:30.411Z,5.03
2022-10-22T08:43:17.359Z,4.50
2022-10-22T08:45:50.512Z,4.57
2022-10-22T08:48:35.056Z,4.13
2022-10-22T08:51:01.663Z,4.17
2022-10-22T08:53:36.653Z,4.80
2022-10-22T08:56:03.266Z,4.88
2022-10-22T08:58:35.836Z,4.60
2022-10-22T09:01:06.208Z,5.40
2022-10-22T09:03:45.421Z,4.63
2022-10-22T09:06:15.539Z,4.85
2022-10-22T09:08:44.729Z,4.88
2022-10-22T09:11:22.308Z,4.50
2022-10-22T09:13:49.785Z,6.43
2022-10-22T09:16:19.238Z,6.63
2022-10-22T09:18:58.659Z,12.00
2022-10-22T09:21:33.895Z,7.50
2022-10-22T09:24:06.939Z,7.55
2022-10-22T09:26:38.427Z,4.30
2022-10-22T09:29:05.396Z,3.83
2022-10-22T09:31:33.205Z,3.80
2022-10-22T09:34:01.516Z,4.25
2022-10-22T09:36:29.025Z,3.97
2022-10-22T09:38:55.587Z,4.47
2022-10-22T09:41:25.499Z,3.37
2022-10-22T09:43:52.397Z,3.42
2022-10-22T09:46:20.887Z,3.90
2022-10-22T09:48:50.463Z,3.38
2022-10-22T09:51:22.079Z,3.67
2022-10-22T09:53:56.745Z,4.53
2022-10-22T09:56:27.472Z,4.68
2022-10-22T09:58:56.944Z,3.97
2022-10-22T10:01:26.549Z,3.22
2022-10-22T10:03:53.284Z,3.40
2022-10-22T10:06:22.933Z,4.87
2022-10-22T10:08:50.300Z,3.38
2022-10-22T10:11:29.092Z,3.40
2022-10-22T10:14:07.583Z,3.85
2022-10-22T10:16:42.936Z,3.30
2022-10-22T10:19:33.530Z,3.17
2022-10-22T10:22:12.033Z,3.17
2022-10-22T10:24:50.422Z,4.07
2022-10-22T10:27:25.712Z,3.88
2022-10-22T10:29:58.799Z,3.50
2022-10-22T10:32:37.361Z,3.20
2022-10-22T10:35:15.569Z,3.60
2022-10-22T10:37:49.896Z,3.10
2022-10-22T10:40:26.596Z,3.22
2022-10-22T10:42:58.024Z,3.45
2022-10-22T10:45:32.985Z,2.80
2022-10-22T10:48:28.348Z,2.90
2022-10-22T10:51:06.274Z,2.78
2022-10-22T10:53:57.725Z,2.50
2022-10-22T10:56:38.359Z,2.85
2022-10-22T10:59:16.656Z,2.20
2022-10-22T11:01:59.451Z,2.47
2022-10-22T11:05:10.788Z,2.50
2022-10-22T11:07:42.833Z,2.25
2022-10-22T11:10:22.232Z,2.20
2022-10-22T11:12:52.909Z,2.63
2022-10-22T11:15:27.374Z,2.50
2022-10-22T11:18:02.307Z,2.67
2022-10-22T11:20:47.085Z,2.17
2022-10-22T11:23:20.451Z,2.40
2022-10-22T11:25:51.196Z,2.20
2022-10-22T11:28:23.997Z,2.50
2022-10-22T11:30:58.167Z,2.20
2022-10-22T11:33:28.690Z,3.10
2022-10-22T11:35:57.804Z,2.60
2022-10-22T11:38:26.830Z,2.20
2022-10-22T11:41:00.417Z,2.40
2022-10-22T11:43:30.840Z,2.30
2022-10-22T11:46:01.699Z,2.08
2022-10-22T11:48:36.214Z,2.20
2022-10-22T11:51:03.689Z,1.77
2022-10-22T11:53:32.658Z,1.80
2022-10-22T11:56:20.017Z,8.20
2022-10-22T11:58:50.828Z,3.00
2022-10-22T12:01:27.586Z,2.15
2022-10-22T12:04:18.851Z,1.50
2022-10-22T12:06:53.892Z,1.70
2022-10-22T12:09:23.568Z,2.20
2022-10-22T12:11:51.757Z,2.10
2022-10-22T12:14:21.663Z,1.88
2022-10-22T12:16:56.920Z,4.63
2022-10-22T12:19:27.257Z,3.25
2022-10-22T12:21:56.001Z,1.80
2022-10-22T12:24:25.100Z,1.80
2022-10-22T12:26:53.150Z,1.58
2022-10-22T12:29:22.005Z,21.77
2022-10-22T12:31:48.670Z,4.20
2022-10-22T12:34:17.012Z,9.15
2022-10-22T12:36:44.061Z,1.70
2022-10-22T12:39:15.081Z,1.77
2022-10-22T12:41:42.594Z,1.70
2022-10-22T12:44:14.196Z,1.63
2022-10-22T12:46:42.716Z,1.70
2022-10-22T12:49:15.032Z,1.67
2022-10-22T12:51:42.052Z,1.67
2022-10-22T12:54:15.012Z,1.70
2022-10-22T12:56:41.701Z,1.98
2022-10-22T12:59:18.094Z,1.50
2022-10-22T13:01:44.857Z,1.75
2022-10-22T13:04:22.040Z,1.70
2022-10-22T13:06:50.026Z,1.43
2022-10-22T13:09:22.577Z,1.58
2022-10-22T13:11:54.961Z,1.50
2022-10-22T13:14:27.779Z,1.83
2022-10-22T13:17:12.190Z,1.75
2022-10-22T13:19:42.112Z,1.83
2022-10-22T13:22:30.583Z,2.10
2022-10-22T13:27:31.513Z,1.77
2022-10-22T13:30:03.137Z,1.55
2022-10-22T13:32:32.036Z,1.40
2022-10-22T13:35:00.593Z,1.92
2022-10-22T13:37:29.471Z,1.85
2022-10-22T13:39:56.143Z,1.70
2022-10-22T13:42:22.774Z,2.10
2022-10-22T13:44:49.269Z,1.70
2022-10-22T13:47:25.443Z,1.30
2022-10-22T13:49:53.444Z,1.65
2022-10-22T13:52:28.576Z,1.42
2022-10-22T13:54:55.143Z,1.20
2022-10-22T13:57:21.668Z,1.30
2022-10-22T13:59:48.203Z,1.50
2022-10-22T14:02:14.780Z,1.40
2022-10-22T14:04:42.828Z,1.60
2022-10-22T14:07:13.259Z,1.58
2022-10-22T14:09:39.797Z,1.40
2022-10-22T14:12:11.931Z,1.70
2022-10-22T14:14:38.471Z,1.63
2022-10-22T14:17:05.809Z,1.55
2022-10-22T14:19:32.432Z,1.50
2022-10-22T14:22:00.342Z,1.60
2022-10-22T14:24:26.833Z,1.30
2022-10-22T14:26:53.365Z,1.58
2022-10-22T14:29:20.005Z,1.50
2022-10-22T14:31:46.506Z,1.40
2022-10-22T14:34:15.574Z,1.97
2022-10-22T14:36:42.148Z,1.80
2022-10-22T14:39:10.000Z,1.40
2022-10-22T14:41:36.566Z,1.20
2022-10-22T14:44:03.222Z,1.50
2022-10-22T14:46:29.718Z,1.60
2022-10-22T14:48:56.229Z,1.58
2022-10-22T14:51:22.751Z,1.85
2022-10-22T14:53:49.447Z,1.60
2022-10-22T14:56:19.320Z,1.92
2022-10-22T14:58:45.885Z,1.60
2022-10-22T15:01:12.902Z,2.00
2022-10-22T15:03:39.517Z,1.77
2022-10-22T15:06:06.925Z,1.77
2022-10-22T15:08:33.729Z,1.50
2022-10-22T15:11:01.520Z,1.80
2022-10-22T15:13:30.364Z,1.92
2022-10-22T15:15:58.010Z,2.05
2022-10-22T15:18:25.558Z,1.90
2022-10-22T15:20:56.638Z,1.83
2022-10-22T15:23:23.135Z,2.17
2022-10-22T15:25:49.676Z,1.52
2022-10-22T15:28:16.184Z,2.15
2022-10-22T15:30:44.160Z,2.13
2022-10-22T15:33:10.658Z,1.85
2022-10-22T15:35:37.368Z,1.80
2022-10-22T15:38:03.896Z,1.90
2022-10-22T15:40:30.392Z,2.20
2022-10-22T15:42:57.012Z,2.22
2022-10-22T15:45:23.513Z,2.85
2022-10-22T15:47:51.412Z,2.10
2022-10-22T15:50:18.246Z,2.58
2022-10-22T15:52:44.792Z,2.13
2022-10-22T15:57:43.316Z,3.10
2022-10-22T16:00:11.285Z,2.77
2022-10-22T16:02:37.913Z,2.58
2022-10-22T16:05:06.989Z,2.97
2022-10-22T16:07:33.642Z,2.13
2022-10-22T16:10:00.155Z,2.05
2022-10-22T16:12:26.666Z,2.40
2022-10-22T16:14:53.223Z,1.77
2022-10-22T16:17:19.768Z,2.05
2022-10-22T16:19:47.821Z,1.77
2022-10-22T16:22:15.759Z,1.65
2022-10-22T16:24:43.124Z,1.90
2022-10-22T16:27:10.128Z,1.50
2022-10-22T16:29:37.498Z,2.03
2022-10-22T16:32:04.364Z,1.85
2022-10-22T16:34:30.855Z,2.05
2022-10-22T16:36:57.506Z,2.10
2022-10-22T16:39:25.455Z,1.83
2022-10-22T16:41:51.981Z,2.50
2022-10-22T16:44:18.581Z,1.92
2022-10-22T16:46:45.362Z,1.95
2022-10-22T16:49:12.194Z,1.90
2022-10-22T16:51:39.221Z,2.17
2022-10-22T16:54:08.414Z,1.90
2022-10-22T16:56:39.682Z,2.60
2022-10-22T16:59:06.543Z,2.20
2022-10-22T17:01:37.871Z,1.97
2022-10-22T17:04:07.069Z,2.05
2022-10-22T17:06:33.592Z,2.15
2022-10-22T17:09:00.289Z,2.15
2022-10-22T17:11:26.877Z,2.17
2022-10-22T17:13:54.797Z,1.67
2022-10-22T17:16:23.489Z,1.90
2022-10-22T17:18:50.003Z,2.08
2022-10-22T17:21:17.551Z,1.92
2022-10-22T17:23:44.437Z,1.90
2022-10-22T17:26:16.043Z,2.00
2022-10-22T17:28:42.844Z,1.63
2022-10-22T17:31:16.943Z,1.77
2022-10-22T17:33:43.957Z,1.42
2022-10-22T17:36:11.305Z,1.63
2022-10-22T17:38:38.541Z,1.40
2022-10-22T17:41:06.936Z,1.52
2022-10-22T17:43:36.024Z,1.50
2022-10-22T17:46:04.208Z,1.40
2022-10-22T17:48:32.297Z,1.60
2022-10-22T17:50:59.410Z,1.57
2022-10-22T17:53:26.437Z,1.70
2022-10-22T17:55:59.277Z,2.20
2022-10-22T17:58:25.809Z,2.30
2022-10-22T18:00:52.490Z,2.60
2022-10-22T18:03:19.009Z,2.20
2022-10-22T18:05:46.889Z,2.60
2022-10-22T18:08:13.408Z,2.90
2022-10-22T18:10:40.619Z,1.88
2022-10-22T18:13:07.136Z,2.25
2022-10-22T18:15:33.805Z,1.90
2022-10-22T18:18:00.311Z,1.85
2022-10-22T18:20:26.867Z,1.83
2022-10-22T18:22:55.205Z,1.75
2022-10-22T18:25:22.268Z,1.83
2022-10-22T18:27:48.836Z,1.60
2022-10-22T18:30:15.946Z,1.50
2022-10-22T18:32:42.558Z,2.20
2022-10-22T18:35:09.290Z,2.20
2022-10-22T18:37:35.951Z,2.20
2022-10-22T18:40:05.799Z,2.33
2022-10-22T18:42:36.645Z,3.03
2022-10-22T18:45:06.891Z,2.90
2022-10-22T18:47:33.455Z,2.30
2022-10-22T18:49:59.975Z,2.92
2022-10-22T18:52:26.480Z,2.90
2022-10-22T18:54:53.005Z,2.80
2022-10-22T18:57:20.865Z,3.08
2022-10-22T18:59:47.402Z,3.28
2022-10-22T19:02:13.891Z,6.22
2022-10-22T19:04:40.520Z,3.73
2022-10-22T19:07:07.058Z,3.30
2022-10-22T19:09:33.981Z,3.20
2022-10-22T19:12:01.089Z,3.30
2022-10-22T19:14:28.942Z,3.90
2022-10-22T19:16:55.486Z,3.03
2022-10-22T19:19:22.463Z,2.95
2022-10-22T19:21:49.538Z,3.15
2022-10-22T19:24:17.697Z,2.97
2022-10-22T19:26:44.911Z,3.80
2022-10-22T19:29:11.458Z,3.07
2022-10-22T19:31:39.387Z,3.08
2022-10-22T19:34:06.033Z,3.13
2022-10-22T19:36:32.803Z,2.63
2022-10-22T19:39:02.722Z,2.40
2022-10-22T19:41:33.542Z,2.37
2022-10-22T19:44:00.634Z,2.30
2022-10-22T19:46:28.943Z,2.83
2022-10-22T19:48:56.815Z,2.17
2022-10-22T19:51:25.476Z,2.20
2022-10-22T19:53:57.451Z,2.20
2022-10-22T19:56:23.963Z,2.58
2022-10-22T19:58:50.468Z,3.05
2022-10-22T20:01:18.440Z,2.90
2022-10-22T20:03:45.239Z,2.60
2022-10-22T20:06:14.836Z,2.60
2022-10-22T20:08:41.443Z,3.00
2022-10-22T20:11:10.580Z,2.80
2022-10-22T20:16:09.565Z,2.78
2022-10-22T20:18:36.720Z,3.80
2022-10-22T20:21:04.268Z,3.25
2022-10-22T20:23:32.546Z,4.72
2022-10-22T20:25:59.275Z,3.95
2022-10-22T20:28:25.905Z,4.00
2022-10-22T20:30:52.453Z,5.70
2022-10-22T20:33:18.995Z,4.90
2022-10-22T20:35:45.494Z,4.60
2022-10-22T20:38:14.776Z,3.72
2022-10-22T20:40:42.642Z,3.70
2022-10-22T20:43:11.702Z,3.20
2022-10-22T20:45:38.995Z,2.97
2022-10-22T20:48:05.984Z,3.35
2022-10-22T20:50:33.129Z,4.05
2022-10-22T20:52:59.712Z,4.10
2022-10-22T20:55:26.848Z,3.90
2022-10-22T20:57:55.195Z,3.75
2022-10-22T21:00:21.735Z,4.00
2022-10-22T21:02:48.380Z,4.07
2022-10-22T21:05:14.969Z,3.70
2022-10-22T21:07:41.760Z,3.37
2022-10-22T21:10:09.008Z,3.22
2022-10-22T21:12:35.715Z,3.00
2022-10-22T21:15:04.625Z,2.70
2022-10-22T21:17:33.243Z,3.17
2022-10-22T21:19:59.985Z,2.30
2022-10-22T21:22:26.732Z,2.88
2022-10-22T21:24:53.265Z,2.53
2022-10-22T21:27:24.412Z,2.58
2022-10-22T21:29:50.940Z,2.53
2022-10-22T21:32:18.815Z,2.50
2022-10-22T21:34:45.353Z,2.30
2022-10-22T21:37:11.997Z,2.67
2022-10-22T21:39:41.947Z,2.30
2022-10-22T21:42:08.835Z,2.58
2022-10-22T21:44:35.376Z,2.40
2022-10-22T21:47:01.896Z,2.17
2022-10-22T21:49:29.992Z,2.42
2022-10-22T21:51:56.638Z,2.20
2022-10-22T21:54:23.322Z,2.13
2022-10-22T21:56:49.824Z,2.30
2022-10-22T21:59:16.439Z,2.40
2022-10-22T22:01:43.131Z,2.30
2022-10-22T22:04:09.731Z,2.05
2022-10-22T22:06:38.224Z,2.35
2022-10-22T22:09:05.552Z,2.60
2022-10-22T22:11:32.233Z,2.90
2022-10-22T22:13:59.333Z,2.70
2022-10-22T22:16:28.685Z,2.95
2022-10-22T22:18:56.278Z,2.92
2022-10-22T22:21:22.870Z,2.77
2022-10-22T22:23:51.187Z,3.08
2022-10-22T22:26:25.207Z,3.20
2022-10-22T22:28:55.057Z,2.42
2022-10-22T22:31:25.727Z,2.70
2022-10-22T22:33:57.759Z,3.07
2022-10-22T22:36:24.317Z,2.47
2022-10-22T22:38:55.389Z,2.58
2022-10-22T22:41:22.199Z,2.47
2022-10-22T22:43:48.786Z,3.22
2022-10-22T22:46:15.435Z,2.93
2022-10-22T22:48:41.935Z,2.83
2022-10-22T22:51:09.929Z,3.28
2022-10-22T22:53:36.591Z,2.97
2022-10-22T22:56:07.975Z,3.47
2022-10-22T22:58:34.760Z,3.27
2022-10-22T23:01:23.256Z,3.70
2022-10-22T23:03:55.833Z,4.22
2022-10-22T23:06:22.771Z,4.30
2022-10-22T23:08:50.567Z,4.53
2022-10-22T23:11:20.015Z,4.10
2022-10-22T23:13:47.181Z,3.45
2022-10-22T23:16:15.748Z,3.17
2022-10-22T23:18:42.745Z,2.78
2022-10-22T23:21:14.000Z,2.60
2022-10-22T23:23:43.139Z,2.83
2022-10-22T23:26:11.581Z,2.05
2022-10-22T23:28:39.945Z,2.42
2022-10-22T23:31:06.721Z,2.10
2022-10-22T23:33:33.412Z,2.33
2022-10-22T23:36:00.995Z,2.23
2022-10-22T23:38:27.537Z,2.28
2022-10-22T23:40:54.602Z,2.20
2022-10-22T23:43:21.128Z,2.42
2022-10-22T23:45:48.981Z,2.33
2022-10-22T23:48:15.600Z,2.10
2022-10-22T23:50:42.122Z,2.13
2022-10-22T23:53:08.689Z,2.67
2022-10-22T23:55:36.961Z,2.80
2022-10-22T23:58:03.609Z,2.03
